FSrealWX - Weather AddOn for Flightsimulators FS2004, FSX, P3D and Xplane
×

Notice

The forum is in read only mode.

weather discrippancy

More
7 years 6 months ago #1289 by mteljeur
After several observation I noticed discrippancy when there's f.e a METAR as follows:

EHAM 290925Z 16005KT 0200 R18C/0550N R27/0325N R18R/0275N R06/0325N FZFG VV001 M02/M02 Q1040

It seems when rvr's are reported the weather is not correct translated into the flightsim
In the above situation temp and qnh are standard set to 15 deg and 1013

My setup FS9 and PMDG737NG

FSrealwx is communicating through FSUIPC but the same problem occurs when I use your WX bridge

Any idea why this happens?

Marcel
The following user(s) said Thank You: SilloAdmin
Time to create page: 0.459 seconds

We use cookies on our website. Some of them are essential for the operation of the site, while others help us to improve this site and the user experience (tracking cookies). You can decide for yourself whether you want to allow cookies or not. Please note that if you reject them, you may not be able to use all the functionalities of the site.